sensor_id;sensor_type;location;lat;lon;timestamp;P1;P2;P0
69123;PMS5003;56232;53.384;-2.732;2024-01-11T00:00:02;2;2;
69123;PMS5003;56232;53.384;-2.732;2024-01-11T00:02:28;3;3;
69123;PMS5003;56232;53.384;-2.732;2024-01-11T00:04:53;5;5;
69123;PMS5003;56232;53.384;-2.732;2024-01-11T00:07:19;2;2;
69123;PMS5003;56232;53.384;-2.732;2024-01-11T00:09:45;5;4;
69123;PMS5003;56232;53.384;-2.732;2024-01-11T00:12:11;2;2;
69123;PMS5003;56232;53.384;-2.732;2024-01-11T00:14:36;2;1;
69123;PMS5003;56232;53.384;-2.732;2024-01-11T00:17:02;2;2;
69123;PMS5003;56232;53.384;-2.732;2024-01-11T00:19:28;2;2;
69123;PMS5003;56232;53.384;-2.732;2024-01-11T00:21:54;4;3;
69123;PMS5003;56232;53.384;-2.732;2024-01-11T00:24:19;1;1;
69123;PMS5003;56232;53.384;-2.732;2024-01-11T00:26:45;1;1;
69123;PMS5003;56232;53.384;-2.732;2024-01-11T00:29:11;1;1;
69123;PMS5003;56232;53.384;-2.732;2024-01-11T00:31:36;3;2;
69123;PMS5003;56232;53.384;-2.732;2024-01-11T00:34:02;2;2;
69123;PMS5003;56232;53.384;-2.732;2024-01-11T00:36:28;2;2;
69123;PMS5003;56232;53.384;-2.732;2024-01-11T00:38:54;4;3;
69123;PMS5003;56232;53.384;-2.732;2024-01-11T00:41:19;2;1;
69123;PMS5003;56232;53.384;-2.732;2024-01-11T00:43:45;2;1;
69123;PMS5003;56232;53.384;-2.732;2024-01-11T00:46:10;4;3;
69123;PMS5003;56232;53.384;-2.732;2024-01-11T00:48:36;5;2;
69123;PMS5003;56232;53.384;-2.732;2024-01-11T00:51:03;1;1;
69123;PMS5003;56232;53.384;-2.732;2024-01-11T00:53:27;2;1;
69123;PMS5003;56232;53.384;-2.732;2024-01-11T00:55:53;2;2;
69123;PMS5003;56232;53.384;-2.732;2024-01-11T00:58:19;2;1;
69123;PMS5003;56232;53.384;-2.732;2024-01-11T01:00:44;1;1;
69123;PMS5003;56232;53.384;-2.732;2024-01-11T01:03:10;1;1;
69123;PMS5003;56232;53.384;-2.732;2024-01-11T01:05:36;2;2;
69123;PMS5003;56232;53.384;-2.732;2024-01-11T01:08:01;5;3;
69123;PMS5003;56232;53.384;-2.732;2024-01-11T01:10:27;3;2;
69123;PMS5003;56232;53.384;-2.732;2024-01-11T01:12:53;3;2;
69123;PMS5003;56232;53.384;-2.732;2024-01-11T01:15:18;3;2;
69123;PMS5003;56232;53.384;-2.732;2024-01-11T01:17:44;4;2;
69123;PMS5003;56232;53.384;-2.732;2024-01-11T01:20:10;2;2;
69123;PMS5003;56232;53.384;-2.732;2024-01-11T01:22:35;2;2;
69123;PMS5003;56232;53.384;-2.732;2024-01-11T01:25:01;3;3;
69123;PMS5003;56232;53.384;-2.732;2024-01-11T01:27:27;2;1;
69123;PMS5003;56232;53.384;-2.732;2024-01-11T01:29:53;2;2;
69123;PMS5003;56232;53.384;-2.732;2024-01-11T01:32:18;2;1;
69123;PMS5003;56232;53.384;-2.732;2024-01-11T01:34:44;3;3;
69123;PMS5003;56232;53.384;-2.732;2024-01-11T01:37:10;2;2;
69123;PMS5003;56232;53.384;-2.732;2024-01-11T01:39:37;3;2;
69123;PMS5003;56232;53.384;-2.732;2024-01-11T01:42:01;2;2;
69123;PMS5003;56232;53.384;-2.732;2024-01-11T01:44:27;4;4;
69123;PMS5003;56232;53.384;-2.732;2024-01-11T01:46:53;3;2;
69123;PMS5003;56232;53.384;-2.732;2024-01-11T01:49:18;4;4;
69123;PMS5003;56232;53.384;-2.732;2024-01-11T01:51:50;4;4;
69123;PMS5003;56232;53.384;-2.732;2024-01-11T01:54:10;3;3;
69123;PMS5003;56232;53.384;-2.732;2024-01-11T01:56:36;5;4;
69123;PMS5003;56232;53.384;-2.732;2024-01-11T01:59:01;3;2;
69123;PMS5003;56232;53.384;-2.732;2024-01-11T02:01:27;4;4;
69123;PMS5003;56232;53.384;-2.732;2024-01-11T02:03:53;2;2;
69123;PMS5003;56232;53.384;-2.732;2024-01-11T02:06:19;3;3;
69123;PMS5003;56232;53.384;-2.732;2024-01-11T02:08:44;3;3;
69123;PMS5003;56232;53.384;-2.732;2024-01-11T02:11:10;3;2;
69123;PMS5003;56232;53.384;-2.732;2024-01-11T02:13:36;3;3;
69123;PMS5003;56232;53.384;-2.732;2024-01-11T02:16:02;3;3;
69123;PMS5003;56232;53.384;-2.732;2024-01-11T02:18:27;2;2;
69123;PMS5003;56232;53.384;-2.732;2024-01-11T02:20:53;4;3;
69123;PMS5003;56232;53.384;-2.732;2024-01-11T02:23:19;2;2;
69123;PMS5003;56232;53.384;-2.732;2024-01-11T02:25:45;2;2;
69123;PMS5003;56232;53.384;-2.732;2024-01-11T02:28:10;2;2;
69123;PMS5003;56232;53.384;-2.732;2024-01-11T02:30:36;3;3;
69123;PMS5003;56232;53.384;-2.732;2024-01-11T02:33:02;2;2;
69123;PMS5003;56232;53.384;-2.732;2024-01-11T02:35:28;2;2;
69123;PMS5003;56232;53.384;-2.732;2024-01-11T02:37:54;4;4;
69123;PMS5003;56232;53.384;-2.732;2024-01-11T02:40:19;4;4;
69123;PMS5003;56232;53.384;-2.732;2024-01-11T02:42:45;3;2;
69123;PMS5003;56232;53.384;-2.732;2024-01-11T02:45:11;2;2;
69123;PMS5003;56232;53.384;-2.732;2024-01-11T02:47:37;3;3;
69123;PMS5003;56232;53.384;-2.732;2024-01-11T02:50:03;2;2;
69123;PMS5003;56232;53.384;-2.732;2024-01-11T02:52:28;3;2;
69123;PMS5003;56232;53.384;-2.732;2024-01-11T02:54:54;2;2;
69123;PMS5003;56232;53.384;-2.732;2024-01-11T02:57:19;2;2;
69123;PMS5003;56232;53.384;-2.732;2024-01-11T02:59:45;2;2;
69123;PMS5003;56232;53.384;-2.732;2024-01-11T03:02:11;2;2;
69123;PMS5003;56232;53.384;-2.732;2024-01-11T03:04:37;2;2;
69123;PMS5003;56232;53.384;-2.732;2024-01-11T03:07:03;2;1;
69123;PMS5003;56232;53.384;-2.732;2024-01-11T03:09:28;2;2;
69123;PMS5003;56232;53.384;-2.732;2024-01-11T03:11:54;1;1;
69123;PMS5003;56232;53.384;-2.732;2024-01-11T03:14:20;2;2;
69123;PMS5003;56232;53.384;-2.732;2024-01-11T03:16:46;3;3;
69123;PMS5003;56232;53.384;-2.732;2024-01-11T03:19:11;3;3;
69123;PMS5003;56232;53.384;-2.732;2024-01-11T03:21:40;3;2;
69123;PMS5003;56232;53.384;-2.732;2024-01-11T03:24:03;3;3;
69123;PMS5003;56232;53.384;-2.732;2024-01-11T03:26:29;3;2;
69123;PMS5003;56232;53.384;-2.732;2024-01-11T03:28:55;2;2;
69123;PMS5003;56232;53.384;-2.732;2024-01-11T03:31:20;3;3;
69123;PMS5003;56232;53.384;-2.732;2024-01-11T03:33:46;2;2;
69123;PMS5003;56232;53.384;-2.732;2024-01-11T03:36:12;2;2;
69123;PMS5003;56232;53.384;-2.732;2024-01-11T03:38:38;2;2;
69123;PMS5003;56232;53.384;-2.732;2024-01-11T03:41:07;2;2;
69123;PMS5003;56232;53.384;-2.732;2024-01-11T03:43:29;2;2;
69123;PMS5003;56232;53.384;-2.732;2024-01-11T03:45:56;3;3;
69123;PMS5003;56232;53.384;-2.732;2024-01-11T03:48:21;2;2;
69123;PMS5003;56232;53.384;-2.732;2024-01-11T03:50:47;3;3;
69123;PMS5003;56232;53.384;-2.732;2024-01-11T03:53:12;3;3;
69123;PMS5003;56232;53.384;-2.732;2024-01-11T03:55:38;2;2;
69123;PMS5003;56232;53.384;-2.732;2024-01-11T03:58:04;4;3;
69123;PMS5003;56232;53.384;-2.732;2024-01-11T04:00:30;2;2;
69123;PMS5003;56232;53.384;-2.732;2024-01-11T04:02:55;3;3;
69123;PMS5003;56232;53.384;-2.732;2024-01-11T04:05:21;3;3;
69123;PMS5003;56232;53.384;-2.732;2024-01-11T04:07:47;4;4;
69123;PMS5003;56232;53.384;-2.732;2024-01-11T04:10:12;4;4;
69123;PMS5003;56232;53.384;-2.732;2024-01-11T04:12:38;6;5;
69123;PMS5003;56232;53.384;-2.732;2024-01-11T04:15:04;4;4;
69123;PMS5003;56232;53.384;-2.732;2024-01-11T04:17:30;3;3;
69123;PMS5003;56232;53.384;-2.732;2024-01-11T04:19:56;3;3;
69123;PMS5003;56232;53.384;-2.732;2024-01-11T04:22:21;3;3;
69123;PMS5003;56232;53.384;-2.732;2024-01-11T04:24:47;4;3;
69123;PMS5003;56232;53.384;-2.732;2024-01-11T04:27:13;2;2;
69123;PMS5003;56232;53.384;-2.732;2024-01-11T04:29:39;4;4;
69123;PMS5003;56232;53.384;-2.732;2024-01-11T04:32:04;4;3;
69123;PMS5003;56232;53.384;-2.732;2024-01-11T04:34:30;3;3;
69123;PMS5003;56232;53.384;-2.732;2024-01-11T04:36:56;4;4;
69123;PMS5003;56232;53.384;-2.732;2024-01-11T04:39:22;2;2;
69123;PMS5003;56232;53.384;-2.732;2024-01-11T04:41:48;2;2;
69123;PMS5003;56232;53.384;-2.732;2024-01-11T04:44:13;3;2;
69123;PMS5003;56232;53.384;-2.732;2024-01-11T04:46:39;3;3;
69123;PMS5003;56232;53.384;-2.732;2024-01-11T04:49:05;3;2;
69123;PMS5003;56232;53.384;-2.732;2024-01-11T04:51:30;3;3;
69123;PMS5003;56232;53.384;-2.732;2024-01-11T04:53:56;3;3;
69123;PMS5003;56232;53.384;-2.732;2024-01-11T04:56:22;10;6;
69123;PMS5003;56232;53.384;-2.732;2024-01-11T04:58:48;3;3;
69123;PMS5003;56232;53.384;-2.732;2024-01-11T05:01:13;4;4;
69123;PMS5003;56232;53.384;-2.732;2024-01-11T05:03:39;3;3;
69123;PMS5003;56232;53.384;-2.732;2024-01-11T05:06:05;4;3;
69123;PMS5003;56232;53.384;-2.732;2024-01-11T05:08:30;4;4;
69123;PMS5003;56232;53.384;-2.732;2024-01-11T05:10:56;3;3;
69123;PMS5003;56232;53.384;-2.732;2024-01-11T05:13:22;3;3;
69123;PMS5003;56232;53.384;-2.732;2024-01-11T05:15:48;2;2;
69123;PMS5003;56232;53.384;-2.732;2024-01-11T05:18:13;5;4;
69123;PMS5003;56232;53.384;-2.732;2024-01-11T05:20:39;4;3;
69123;PMS5003;56232;53.384;-2.732;2024-01-11T05:23:05;5;5;
69123;PMS5003;56232;53.384;-2.732;2024-01-11T05:25:31;3;3;
69123;PMS5003;56232;53.384;-2.732;2024-01-11T05:27:56;5;5;
69123;PMS5003;56232;53.384;-2.732;2024-01-11T05:30:22;3;3;
69123;PMS5003;56232;53.384;-2.732;2024-01-11T05:32:48;4;4;
69123;PMS5003;56232;53.384;-2.732;2024-01-11T05:35:13;4;4;
69123;PMS5003;56232;53.384;-2.732;2024-01-11T05:37:39;4;4;
69123;PMS5003;56232;53.384;-2.732;2024-01-11T05:40:05;5;5;
69123;PMS5003;56232;53.384;-2.732;2024-01-11T05:42:31;4;4;
69123;PMS5003;56232;53.384;-2.732;2024-01-11T05:44:56;4;4;
69123;PMS5003;56232;53.384;-2.732;2024-01-11T05:47:22;3;3;
69123;PMS5003;56232;53.384;-2.732;2024-01-11T05:49:48;4;4;
69123;PMS5003;56232;53.384;-2.732;2024-01-11T05:52:14;4;3;
69123;PMS5003;56232;53.384;-2.732;2024-01-11T05:54:40;4;4;
69123;PMS5003;56232;53.384;-2.732;2024-01-11T05:57:05;4;3;
69123;PMS5003;56232;53.384;-2.732;2024-01-11T05:59:31;3;3;
69123;PMS5003;56232;53.384;-2.732;2024-01-11T06:01:57;4;4;
69123;PMS5003;56232;53.384;-2.732;2024-01-11T06:04:23;4;4;
69123;PMS5003;56232;53.384;-2.732;2024-01-11T06:06:49;6;5;
69123;PMS5003;56232;53.384;-2.732;2024-01-11T06:09:14;6;5;
69123;PMS5003;56232;53.384;-2.732;2024-01-11T06:11:40;5;4;
69123;PMS5003;56232;53.384;-2.732;2024-01-11T06:14:06;5;5;
69123;PMS5003;56232;53.384;-2.732;2024-01-11T06:16:32;4;4;
69123;PMS5003;56232;53.384;-2.732;2024-01-11T06:18:57;3;3;
69123;PMS5003;56232;53.384;-2.732;2024-01-11T06:21:23;2;2;
69123;PMS5003;56232;53.384;-2.732;2024-01-11T06:23:49;2;2;
69123;PMS5003;56232;53.384;-2.732;2024-01-11T06:26:15;3;3;
69123;PMS5003;56232;53.384;-2.732;2024-01-11T06:28:41;3;3;
69123;PMS5003;56232;53.384;-2.732;2024-01-11T06:31:06;4;4;
69123;PMS5003;56232;53.384;-2.732;2024-01-11T06:33:32;6;5;
69123;PMS5003;56232;53.384;-2.732;2024-01-11T06:35:58;4;4;
69123;PMS5003;56232;53.384;-2.732;2024-01-11T06:38:24;4;3;
69123;PMS5003;56232;53.384;-2.732;2024-01-11T06:40:50;5;5;
69123;PMS5003;56232;53.384;-2.732;2024-01-11T06:43:15;3;3;
69123;PMS5003;56232;53.384;-2.732;2024-01-11T06:45:42;3;3;
69123;PMS5003;56232;53.384;-2.732;2024-01-11T06:48:07;4;4;
69123;PMS5003;56232;53.384;-2.732;2024-01-11T06:50:33;4;3;
69123;PMS5003;56232;53.384;-2.732;2024-01-11T06:52:59;3;3;
69123;PMS5003;56232;53.384;-2.732;2024-01-11T06:55:24;6;4;
69123;PMS5003;56232;53.384;-2.732;2024-01-11T06:57:50;4;4;
69123;PMS5003;56232;53.384;-2.732;2024-01-11T07:00:16;4;4;
69123;PMS5003;56232;53.384;-2.732;2024-01-11T07:02:42;2;2;
69123;PMS5003;56232;53.384;-2.732;2024-01-11T07:05:08;4;4;
69123;PMS5003;56232;53.384;-2.732;2024-01-11T07:07:33;6;5;
69123;PMS5003;56232;53.384;-2.732;2024-01-11T07:09:58;4;4;
69123;PMS5003;56232;53.384;-2.732;2024-01-11T07:12:24;6;6;
69123;PMS5003;56232;53.384;-2.732;2024-01-11T07:14:50;5;4;
69123;PMS5003;56232;53.384;-2.732;2024-01-11T07:17:16;5;5;
69123;PMS5003;56232;53.384;-2.732;2024-01-11T07:19:41;4;4;
69123;PMS5003;56232;53.384;-2.732;2024-01-11T07:22:07;3;3;
69123;PMS5003;56232;53.384;-2.732;2024-01-11T07:24:33;5;4;
69123;PMS5003;56232;53.384;-2.732;2024-01-11T07:26:59;4;4;
69123;PMS5003;56232;53.384;-2.732;2024-01-11T07:29:24;9;7;
69123;PMS5003;56232;53.384;-2.732;2024-01-11T07:31:50;3;3;
69123;PMS5003;56232;53.384;-2.732;2024-01-11T07:34:15;4;4;
69123;PMS5003;56232;53.384;-2.732;2024-01-11T07:36:40;4;3;
69123;PMS5003;56232;53.384;-2.732;2024-01-11T07:39:06;3;3;
69123;PMS5003;56232;53.384;-2.732;2024-01-11T07:41:32;5;4;
69123;PMS5003;56232;53.384;-2.732;2024-01-11T07:43:58;5;5;
69123;PMS5003;56232;53.384;-2.732;2024-01-11T07:46:23;4;4;
69123;PMS5003;56232;53.384;-2.732;2024-01-11T07:48:50;3;3;
69123;PMS5003;56232;53.384;-2.732;2024-01-11T07:51:15;4;3;
69123;PMS5003;56232;53.384;-2.732;2024-01-11T07:53:41;4;3;
69123;PMS5003;56232;53.384;-2.732;2024-01-11T07:56:07;4;4;
69123;PMS5003;56232;53.384;-2.732;2024-01-11T07:58:32;5;5;
69123;PMS5003;56232;53.384;-2.732;2024-01-11T08:00:58;5;5;
69123;PMS5003;56232;53.384;-2.732;2024-01-11T08:03:24;7;7;
69123;PMS5003;56232;53.384;-2.732;2024-01-11T08:05:50;8;8;
69123;PMS5003;56232;53.384;-2.732;2024-01-11T08:08:16;5;5;
69123;PMS5003;56232;53.384;-2.732;2024-01-11T08:10:41;6;6;
69123;PMS5003;56232;53.384;-2.732;2024-01-11T08:13:07;5;4;
69123;PMS5003;56232;53.384;-2.732;2024-01-11T08:15:33;6;6;
69123;PMS5003;56232;53.384;-2.732;2024-01-11T08:17:59;6;6;
69123;PMS5003;56232;53.384;-2.732;2024-01-11T08:20:24;6;6;
69123;PMS5003;56232;53.384;-2.732;2024-01-11T08:22:51;5;5;
69123;PMS5003;56232;53.384;-2.732;2024-01-11T08:25:16;6;5;
69123;PMS5003;56232;53.384;-2.732;2024-01-11T08:27:42;9;6;
69123;PMS5003;56232;53.384;-2.732;2024-01-11T08:30:08;6;6;
69123;PMS5003;56232;53.384;-2.732;2024-01-11T08:32:33;6;6;
69123;PMS5003;56232;53.384;-2.732;2024-01-11T08:34:59;5;5;
69123;PMS5003;56232;53.384;-2.732;2024-01-11T08:37:25;7;7;
69123;PMS5003;56232;53.384;-2.732;2024-01-11T08:39:51;6;6;
69123;PMS5003;56232;53.384;-2.732;2024-01-11T08:42:16;8;8;
69123;PMS5003;56232;53.384;-2.732;2024-01-11T08:44:42;7;7;
69123;PMS5003;56232;53.384;-2.732;2024-01-11T08:47:08;8;8;
69123;PMS5003;56232;53.384;-2.732;2024-01-11T08:51:59;7;7;
69123;PMS5003;56232;53.384;-2.732;2024-01-11T08:54:25;7;7;
69123;PMS5003;56232;53.384;-2.732;2024-01-11T08:56:51;9;8;
69123;PMS5003;56232;53.384;-2.732;2024-01-11T08:59:16;7;7;
69123;PMS5003;56232;53.384;-2.732;2024-01-11T09:01:42;5;5;
69123;PMS5003;56232;53.384;-2.732;2024-01-11T09:04:08;4;4;
69123;PMS5003;56232;53.384;-2.732;2024-01-11T09:06:34;5;4;
69123;PMS5003;56232;53.384;-2.732;2024-01-11T09:08:59;5;4;
69123;PMS5003;56232;53.384;-2.732;2024-01-11T09:11:25;3;3;
69123;PMS5003;56232;53.384;-2.732;2024-01-11T09:13:51;5;4;
69123;PMS5003;56232;53.384;-2.732;2024-01-11T09:16:17;6;5;
69123;PMS5003;56232;53.384;-2.732;2024-01-11T09:18:43;4;4;
69123;PMS5003;56232;53.384;-2.732;2024-01-11T09:21:08;4;4;
69123;PMS5003;56232;53.384;-2.732;2024-01-11T09:23:34;4;4;
69123;PMS5003;56232;53.384;-2.732;2024-01-11T09:25:59;5;4;
69123;PMS5003;56232;53.384;-2.732;2024-01-11T09:28:25;4;4;
69123;PMS5003;56232;53.384;-2.732;2024-01-11T09:30:51;4;4;
69123;PMS5003;56232;53.384;-2.732;2024-01-11T09:33:16;3;3;
69123;PMS5003;56232;53.384;-2.732;2024-01-11T09:35:42;3;3;
69123;PMS5003;56232;53.384;-2.732;2024-01-11T09:38:07;2;2;
69123;PMS5003;56232;53.384;-2.732;2024-01-11T09:40:33;5;5;
69123;PMS5003;56232;53.384;-2.732;2024-01-11T09:42:59;5;4;
69123;PMS5003;56232;53.384;-2.732;2024-01-11T09:45:25;5;5;
69123;PMS5003;56232;53.384;-2.732;2024-01-11T09:47:51;3;3;
69123;PMS5003;56232;53.384;-2.732;2024-01-11T09:50:16;4;4;
69123;PMS5003;56232;53.384;-2.732;2024-01-11T09:52:42;3;3;
69123;PMS5003;56232;53.384;-2.732;2024-01-11T09:55:08;3;3;
69123;PMS5003;56232;53.384;-2.732;2024-01-11T09:57:33;6;5;
69123;PMS5003;56232;53.384;-2.732;2024-01-11T09:59:59;3;3;
69123;PMS5003;56232;53.384;-2.732;2024-01-11T10:02:25;4;4;
69123;PMS5003;56232;53.384;-2.732;2024-01-11T10:04:51;3;3;
69123;PMS5003;56232;53.384;-2.732;2024-01-11T10:07:16;3;3;
69123;PMS5003;56232;53.384;-2.732;2024-01-11T10:09:42;3;3;
69123;PMS5003;56232;53.384;-2.732;2024-01-11T10:12:08;4;3;
69123;PMS5003;56232;53.384;-2.732;2024-01-11T10:14:33;3;3;
69123;PMS5003;56232;53.384;-2.732;2024-01-11T10:16:59;2;2;
69123;PMS5003;56232;53.384;-2.732;2024-01-11T10:19:25;4;3;
69123;PMS5003;56232;53.384;-2.732;2024-01-11T10:21:51;3;2;
69123;PMS5003;56232;53.384;-2.732;2024-01-11T10:24:17;2;2;
69123;PMS5003;56232;53.384;-2.732;2024-01-11T10:26:41;5;3;
69123;PMS5003;56232;53.384;-2.732;2024-01-11T10:29:07;3;2;
69123;PMS5003;56232;53.384;-2.732;2024-01-11T10:31:33;2;2;
69123;PMS5003;56232;53.384;-2.732;2024-01-11T10:33:59;2;2;
69123;PMS5003;56232;53.384;-2.732;2024-01-11T10:36:24;3;3;
69123;PMS5003;56232;53.384;-2.732;2024-01-11T10:38:50;2;1;
69123;PMS5003;56232;53.384;-2.732;2024-01-11T10:41:17;2;2;
69123;PMS5003;56232;53.384;-2.732;2024-01-11T10:43:42;2;2;
69123;PMS5003;56232;53.384;-2.732;2024-01-11T10:46:07;1;1;
69123;PMS5003;56232;53.384;-2.732;2024-01-11T10:48:33;2;2;
69123;PMS5003;56232;53.384;-2.732;2024-01-11T10:51:00;2;2;
69123;PMS5003;56232;53.384;-2.732;2024-01-11T10:53:25;2;2;
69123;PMS5003;56232;53.384;-2.732;2024-01-11T10:55:50;2;2;
69123;PMS5003;56232;53.384;-2.732;2024-01-11T10:58:16;1;1;
69123;PMS5003;56232;53.384;-2.732;2024-01-11T11:00:41;2;2;
69123;PMS5003;56232;53.384;-2.732;2024-01-11T11:03:07;4;3;
69123;PMS5003;56232;53.384;-2.732;2024-01-11T11:05:34;1;1;
69123;PMS5003;56232;53.384;-2.732;2024-01-11T11:07:59;3;3;
69123;PMS5003;56232;53.384;-2.732;2024-01-11T11:10:24;3;2;
69123;PMS5003;56232;53.384;-2.732;2024-01-11T11:12:51;2;2;
69123;PMS5003;56232;53.384;-2.732;2024-01-11T11:15:16;2;1;
69123;PMS5003;56232;53.384;-2.732;2024-01-11T11:17:42;1;1;
69123;PMS5003;56232;53.384;-2.732;2024-01-11T11:20:08;1;1;
69123;PMS5003;56232;53.384;-2.732;2024-01-11T11:22:33;1;1;
69123;PMS5003;56232;53.384;-2.732;2024-01-11T11:27:24;0;0;
69123;PMS5003;56232;53.384;-2.732;2024-01-11T11:29:50;1;1;
69123;PMS5003;56232;53.384;-2.732;2024-01-11T11:32:16;1;1;
69123;PMS5003;56232;53.384;-2.732;2024-01-11T11:34:42;1;1;
69123;PMS5003;56232;53.384;-2.732;2024-01-11T11:37:07;2;2;
69123;PMS5003;56232;53.384;-2.732;2024-01-11T11:39:33;1;1;
69123;PMS5003;56232;53.384;-2.732;2024-01-11T11:41:59;2;2;
69123;PMS5003;56232;53.384;-2.732;2024-01-11T11:44:24;2;1;
69123;PMS5003;56232;53.384;-2.732;2024-01-11T11:46:50;4;4;
69123;PMS5003;56232;53.384;-2.732;2024-01-11T11:49:16;1;1;
69123;PMS5003;56232;53.384;-2.732;2024-01-11T11:51:42;2;2;
69123;PMS5003;56232;53.384;-2.732;2024-01-11T11:54:07;2;2;
69123;PMS5003;56232;53.384;-2.732;2024-01-11T11:56:33;1;1;
69123;PMS5003;56232;53.384;-2.732;2024-01-11T11:58:58;1;1;
69123;PMS5003;56232;53.384;-2.732;2024-01-11T12:01:24;2;2;
69123;PMS5003;56232;53.384;-2.732;2024-01-11T12:03:50;4;3;
69123;PMS5003;56232;53.384;-2.732;2024-01-11T12:06:15;3;2;
69123;PMS5003;56232;53.384;-2.732;2024-01-11T12:08:41;6;6;
69123;PMS5003;56232;53.384;-2.732;2024-01-11T12:11:05;6;6;
69123;PMS5003;56232;53.384;-2.732;2024-01-11T12:13:31;3;2;
69123;PMS5003;56232;53.384;-2.732;2024-01-11T12:15:57;2;2;
69123;PMS5003;56232;53.384;-2.732;2024-01-11T12:18:23;2;1;
69123;PMS5003;56232;53.384;-2.732;2024-01-11T12:20:48;2;2;
69123;PMS5003;56232;53.384;-2.732;2024-01-11T12:23:14;3;2;
69123;PMS5003;56232;53.384;-2.732;2024-01-11T12:25:40;1;1;
69123;PMS5003;56232;53.384;-2.732;2024-01-11T12:28:05;4;2;
69123;PMS5003;56232;53.384;-2.732;2024-01-11T12:30:31;2;2;
69123;PMS5003;56232;53.384;-2.732;2024-01-11T12:32:57;2;2;
69123;PMS5003;56232;53.384;-2.732;2024-01-11T12:35:23;3;3;
69123;PMS5003;56232;53.384;-2.732;2024-01-11T12:37:52;2;2;
69123;PMS5003;56232;53.384;-2.732;2024-01-11T12:40:14;1;1;
69123;PMS5003;56232;53.384;-2.732;2024-01-11T12:42:40;3;3;
69123;PMS5003;56232;53.384;-2.732;2024-01-11T12:45:06;1;1;
69123;PMS5003;56232;53.384;-2.732;2024-01-11T12:47:31;2;2;
69123;PMS5003;56232;53.384;-2.732;2024-01-11T12:49:57;3;2;
69123;PMS5003;56232;53.384;-2.732;2024-01-11T12:52:22;4;3;
69123;PMS5003;56232;53.384;-2.732;2024-01-11T12:54:51;2;1;
69123;PMS5003;56232;53.384;-2.732;2024-01-11T12:57:17;2;2;
69123;PMS5003;56232;53.384;-2.732;2024-01-11T12:59:40;3;2;
69123;PMS5003;56232;53.384;-2.732;2024-01-11T13:02:05;2;2;
69123;PMS5003;56232;53.384;-2.732;2024-01-11T13:04:31;3;2;
69123;PMS5003;56232;53.384;-2.732;2024-01-11T13:06:56;2;1;
69123;PMS5003;56232;53.384;-2.732;2024-01-11T13:09:22;3;3;
69123;PMS5003;56232;53.384;-2.732;2024-01-11T13:11:48;3;3;
69123;PMS5003;56232;53.384;-2.732;2024-01-11T13:14:13;3;2;
69123;PMS5003;56232;53.384;-2.732;2024-01-11T13:16:39;3;2;
69123;PMS5003;56232;53.384;-2.732;2024-01-11T13:19:05;4;3;
69123;PMS5003;56232;53.384;-2.732;2024-01-11T13:21:30;6;5;
69123;PMS5003;56232;53.384;-2.732;2024-01-11T13:23:56;7;7;
69123;PMS5003;56232;53.384;-2.732;2024-01-11T13:26:22;7;6;
69123;PMS5003;56232;53.384;-2.732;2024-01-11T13:28:47;9;9;
69123;PMS5003;56232;53.384;-2.732;2024-01-11T13:31:13;8;4;
69123;PMS5003;56232;53.384;-2.732;2024-01-11T13:33:38;6;5;
69123;PMS5003;56232;53.384;-2.732;2024-01-11T13:36:05;4;4;
69123;PMS5003;56232;53.384;-2.732;2024-01-11T13:38:30;5;5;
69123;PMS5003;56232;53.384;-2.732;2024-01-11T13:40:56;2;2;
69123;PMS5003;56232;53.384;-2.732;2024-01-11T13:43:21;6;5;
69123;PMS5003;56232;53.384;-2.732;2024-01-11T13:45:47;5;3;
69123;PMS5003;56232;53.384;-2.732;2024-01-11T13:48:12;5;5;
69123;PMS5003;56232;53.384;-2.732;2024-01-11T13:50:38;4;4;
69123;PMS5003;56232;53.384;-2.732;2024-01-11T13:53:04;4;4;
69123;PMS5003;56232;53.384;-2.732;2024-01-11T13:55:30;3;3;
69123;PMS5003;56232;53.384;-2.732;2024-01-11T13:57:55;6;5;
69123;PMS5003;56232;53.384;-2.732;2024-01-11T14:00:21;4;4;
69123;PMS5003;56232;53.384;-2.732;2024-01-11T14:02:47;5;5;
69123;PMS5003;56232;53.384;-2.732;2024-01-11T14:05:13;4;4;
69123;PMS5003;56232;53.384;-2.732;2024-01-11T14:07:38;5;5;
69123;PMS5003;56232;53.384;-2.732;2024-01-11T14:10:04;3;3;
69123;PMS5003;56232;53.384;-2.732;2024-01-11T14:12:29;4;3;
69123;PMS5003;56232;53.384;-2.732;2024-01-11T14:14:55;4;4;
69123;PMS5003;56232;53.384;-2.732;2024-01-11T14:17:20;3;3;
69123;PMS5003;56232;53.384;-2.732;2024-01-11T14:19:46;3;3;
69123;PMS5003;56232;53.384;-2.732;2024-01-11T14:22:12;3;3;
69123;PMS5003;56232;53.384;-2.732;2024-01-11T14:24:37;3;3;
69123;PMS5003;56232;53.384;-2.732;2024-01-11T14:27:03;4;3;
69123;PMS5003;56232;53.384;-2.732;2024-01-11T14:29:29;2;2;
69123;PMS5003;56232;53.384;-2.732;2024-01-11T14:31:54;3;3;
69123;PMS5003;56232;53.384;-2.732;2024-01-11T14:34:20;5;4;
69123;PMS5003;56232;53.384;-2.732;2024-01-11T14:36:46;3;3;
69123;PMS5003;56232;53.384;-2.732;2024-01-11T14:39:11;3;3;
69123;PMS5003;56232;53.384;-2.732;2024-01-11T14:41:37;8;7;
69123;PMS5003;56232;53.384;-2.732;2024-01-11T14:44:03;5;4;
69123;PMS5003;56232;53.384;-2.732;2024-01-11T14:46:28;4;3;
69123;PMS5003;56232;53.384;-2.732;2024-01-11T14:48:54;4;4;
69123;PMS5003;56232;53.384;-2.732;2024-01-11T14:51:20;5;5;
69123;PMS5003;56232;53.384;-2.732;2024-01-11T14:53:46;8;8;
69123;PMS5003;56232;53.384;-2.732;2024-01-11T14:56:11;8;8;
69123;PMS5003;56232;53.384;-2.732;2024-01-11T14:58:37;4;4;
69123;PMS5003;56232;53.384;-2.732;2024-01-11T15:01:02;20;18;
69123;PMS5003;56232;53.384;-2.732;2024-01-11T15:03:28;9;8;
69123;PMS5003;56232;53.384;-2.732;2024-01-11T15:05:53;6;5;
69123;PMS5003;56232;53.384;-2.732;2024-01-11T15:08:19;9;8;
69123;PMS5003;56232;53.384;-2.732;2024-01-11T15:10:44;4;4;
69123;PMS5003;56232;53.384;-2.732;2024-01-11T15:13:10;6;4;
69123;PMS5003;56232;53.384;-2.732;2024-01-11T15:15:36;3;3;
69123;PMS5003;56232;53.384;-2.732;2024-01-11T15:18:02;6;5;
69123;PMS5003;56232;53.384;-2.732;2024-01-11T15:20:27;6;6;
69123;PMS5003;56232;53.384;-2.732;2024-01-11T15:22:53;8;7;
69123;PMS5003;56232;53.384;-2.732;2024-01-11T15:25:19;10;10;
69123;PMS5003;56232;53.384;-2.732;2024-01-11T15:27:44;4;4;
69123;PMS5003;56232;53.384;-2.732;2024-01-11T15:30:10;4;4;
69123;PMS5003;56232;53.384;-2.732;2024-01-11T15:32:36;4;4;
69123;PMS5003;56232;53.384;-2.732;2024-01-11T15:35:02;5;4;
69123;PMS5003;56232;53.384;-2.732;2024-01-11T15:37:27;4;3;
69123;PMS5003;56232;53.384;-2.732;2024-01-11T15:39:53;8;5;
69123;PMS5003;56232;53.384;-2.732;2024-01-11T15:42:19;3;3;
69123;PMS5003;56232;53.384;-2.732;2024-01-11T15:44:44;4;4;
69123;PMS5003;56232;53.384;-2.732;2024-01-11T15:47:10;3;3;
69123;PMS5003;56232;53.384;-2.732;2024-01-11T15:49:36;4;4;
69123;PMS5003;56232;53.384;-2.732;2024-01-11T15:52:01;5;5;
69123;PMS5003;56232;53.384;-2.732;2024-01-11T15:54:27;6;6;
69123;PMS5003;56232;53.384;-2.732;2024-01-11T15:56:53;6;5;
69123;PMS5003;56232;53.384;-2.732;2024-01-11T15:59:18;4;3;
69123;PMS5003;56232;53.384;-2.732;2024-01-11T16:01:44;6;5;
69123;PMS5003;56232;53.384;-2.732;2024-01-11T16:04:10;7;5;
69123;PMS5003;56232;53.384;-2.732;2024-01-11T16:06:35;6;5;
69123;PMS5003;56232;53.384;-2.732;2024-01-11T16:09:01;9;7;
69123;PMS5003;56232;53.384;-2.732;2024-01-11T16:11:27;5;4;
69123;PMS5003;56232;53.384;-2.732;2024-01-11T16:13:53;5;4;
69123;PMS5003;56232;53.384;-2.732;2024-01-11T16:16:18;7;6;
69123;PMS5003;56232;53.384;-2.732;2024-01-11T16:18:44;6;5;
69123;PMS5003;56232;53.384;-2.732;2024-01-11T16:21:09;6;5;
69123;PMS5003;56232;53.384;-2.732;2024-01-11T16:23:35;6;4;
69123;PMS5003;56232;53.384;-2.732;2024-01-11T16:26:01;5;5;